createdAt,value
2022-12-22T09:24:13.080Z,10.90
2022-12-22T09:25:12.865Z,10.91
2022-12-22T09:26:12.902Z,10.87
2022-12-22T09:27:12.875Z,10.79
2022-12-22T09:28:12.861Z,10.78
2022-12-22T09:29:12.854Z,10.72
2022-12-22T09:30:12.898Z,10.68
2022-12-22T09:31:12.869Z,10.61
2022-12-22T09:32:13.995Z,10.55
2022-12-22T09:33:13.971Z,10.60
2022-12-22T09:34:17.949Z,10.58
2022-12-22T09:35:13.985Z,10.72
2022-12-22T09:36:13.959Z,10.73
2022-12-22T09:37:13.946Z,10.85
2022-12-22T09:38:13.940Z,10.73
2022-12-22T09:39:13.918Z,10.82
2022-12-22T09:40:13.876Z,10.82
2022-12-22T09:41:13.933Z,10.85
2022-12-22T09:42:13.931Z,10.85
2022-12-22T09:43:13.909Z,10.83
2022-12-22T09:44:13.886Z,10.93
2022-12-22T09:45:17.288Z,10.90
2022-12-22T09:46:14.954Z,10.93
2022-12-22T09:47:13.873Z,10.93
2022-12-22T09:48:13.881Z,10.94
2022-12-22T09:49:13.882Z,10.94
2022-12-22T09:50:13.858Z,11.08
2022-12-22T09:51:13.870Z,11.01
2022-12-22T09:52:14.580Z,11.09
2022-12-22T09:53:13.816Z,11.11
2022-12-22T09:54:13.856Z,11.08
2022-12-22T09:55:13.822Z,11.03
2022-12-22T09:56:13.829Z,10.98
2022-12-22T09:57:13.819Z,11.09
2022-12-22T09:58:13.812Z,11.03
2022-12-22T09:59:13.815Z,11.15
2022-12-22T10:00:13.793Z,11.28
2022-12-22T10:01:13.844Z,11.16
2022-12-22T10:02:13.821Z,11.16
2022-12-22T10:03:13.804Z,11.19
2022-12-22T10:04:13.766Z,11.25
2022-12-22T10:05:13.783Z,11.27
2022-12-22T10:06:13.796Z,11.19
2022-12-22T10:07:13.746Z,11.15
2022-12-22T10:08:13.755Z,11.18
2022-12-22T10:09:43.969Z,11.22
2022-12-22T10:10:14.744Z,11.28
2022-12-22T10:11:13.751Z,11.09
2022-12-22T10:12:13.749Z,11.03
2022-12-22T10:13:13.700Z,11.11
2022-12-22T10:14:13.720Z,11.04
2022-12-22T10:15:20.041Z,11.05
2022-12-22T10:16:14.731Z,10.97
2022-12-22T10:17:13.713Z,10.98
2022-12-22T10:18:13.692Z,11.01
2022-12-22T10:19:13.692Z,11.05
2022-12-22T10:20:13.660Z,10.94
2022-12-22T10:21:13.673Z,11.09
2022-12-22T10:22:14.749Z,10.98
2022-12-22T10:23:13.628Z,11.00
2022-12-22T10:24:13.645Z,11.03
2022-12-22T10:25:13.649Z,11.01
2022-12-22T10:26:30.837Z,10.98
2022-12-22T10:27:15.645Z,11.05
2022-12-22T10:28:13.630Z,11.13
2022-12-22T10:29:13.609Z,11.09
2022-12-22T10:30:13.574Z,11.13
2022-12-22T10:31:13.585Z,11.20
2022-12-22T10:32:13.657Z,11.36
2022-12-22T10:33:13.674Z,11.36
2022-12-22T10:34:13.579Z,11.38
2022-12-22T10:35:13.581Z,11.45
2022-12-22T10:36:13.598Z,11.41
2022-12-22T10:37:13.563Z,11.33
2022-12-22T10:38:21.611Z,11.34
2022-12-22T10:39:14.573Z,11.31
2022-12-22T10:40:13.520Z,11.18
2022-12-22T10:41:13.549Z,11.28
2022-12-22T10:42:13.547Z,11.15
2022-12-22T10:43:13.512Z,11.12
2022-12-22T10:44:13.616Z,11.15
2022-12-22T10:45:13.497Z,11.05
2022-12-22T10:46:13.556Z,11.19
2022-12-22T10:47:17.410Z,11.15
2022-12-22T10:48:14.516Z,11.15
2022-12-22T10:49:13.502Z,11.08
2022-12-22T10:50:13.482Z,11.11
2022-12-22T10:51:13.460Z,11.08
2022-12-22T10:52:13.483Z,11.08
2022-12-22T10:53:13.406Z,11.13
2022-12-22T10:54:13.465Z,10.98
2022-12-22T10:55:13.589Z,11.05
2022-12-22T10:56:13.471Z,11.04
2022-12-22T10:57:13.434Z,11.09
2022-12-22T10:58:13.508Z,11.15
2022-12-22T10:59:13.437Z,11.12
2022-12-22T11:00:13.441Z,11.09
2022-12-22T11:01:13.435Z,11.01
2022-12-22T11:02:13.557Z,11.01
2022-12-22T11:03:16.159Z,10.95
2022-12-22T11:04:14.417Z,10.98
2022-12-22T11:05:13.379Z,11.04
2022-12-22T11:06:13.392Z,11.05
2022-12-22T11:07:13.343Z,11.09
2022-12-22T11:08:13.419Z,11.09
2022-12-22T11:09:32.489Z,11.18
2022-12-22T11:10:15.376Z,11.08
2022-12-22T11:11:13.481Z,11.08
2022-12-22T11:12:13.366Z,11.16
2022-12-22T11:13:13.341Z,11.16
2022-12-22T11:14:13.332Z,11.23
2022-12-22T11:15:17.181Z,11.22
2022-12-22T11:16:14.590Z,11.33
2022-12-22T11:17:13.333Z,11.22
2022-12-22T11:18:13.380Z,11.40
2022-12-22T11:19:13.333Z,11.40
2022-12-22T11:20:13.331Z,11.41
2022-12-22T11:21:16.185Z,11.46
2022-12-22T11:22:13.289Z,11.54
2022-12-22T11:23:13.293Z,11.56
2022-12-22T11:24:13.296Z,11.45
2022-12-22T11:25:13.229Z,11.43
2022-12-22T11:26:13.220Z,11.31
2022-12-22T11:27:13.352Z,11.36
2022-12-22T11:28:13.228Z,11.30
2022-12-22T11:29:13.201Z,11.27
2022-12-22T11:30:13.197Z,11.23
2022-12-22T11:31:13.304Z,11.23
2022-12-22T11:32:13.216Z,11.19
2022-12-22T11:33:13.325Z,11.23
2022-12-22T11:34:19.026Z,11.13
2022-12-22T11:35:15.213Z,11.05
2022-12-22T11:36:13.179Z,11.12
2022-12-22T11:37:13.230Z,11.23
2022-12-22T11:38:13.266Z,11.15
2022-12-22T11:39:13.169Z,11.13
2022-12-22T11:40:13.178Z,11.13
2022-12-22T11:41:13.124Z,11.03
2022-12-22T11:42:13.133Z,11.00
2022-12-22T11:43:13.118Z,11.00
2022-12-22T11:44:13.149Z,11.00
2022-12-22T11:45:13.136Z,10.91
2022-12-22T11:46:13.215Z,11.00
2022-12-22T11:47:13.133Z,10.97
2022-12-22T11:48:13.148Z,10.97
2022-12-22T11:49:13.180Z,10.95
2022-12-22T11:51:00.867Z,10.98
2022-12-22T11:51:14.595Z,10.95
2022-12-22T11:52:14.078Z,11.00
2022-12-22T11:53:13.114Z,11.03
2022-12-22T11:54:13.084Z,10.95
2022-12-22T11:55:13.123Z,10.93
2022-12-22T11:56:13.073Z,10.94
2022-12-22T11:57:13.071Z,10.97
2022-12-22T11:58:13.044Z,10.95
2022-12-22T11:59:13.615Z,10.93
2022-12-22T12:00:13.153Z,11.08
2022-12-22T12:01:17.518Z,11.09
2022-12-22T12:02:14.221Z,10.97
2022-12-22T12:03:13.055Z,10.97
2022-12-22T12:04:13.102Z,11.08
2022-12-22T12:05:12.985Z,11.05
2022-12-22T12:06:13.072Z,11.11
2022-12-22T12:07:12.989Z,11.08
2022-12-22T12:08:12.960Z,10.93
2022-12-22T12:09:12.951Z,10.97
2022-12-22T12:10:14.656Z,10.90
2022-12-22T12:11:13.063Z,10.79
2022-12-22T12:12:12.967Z,10.95
2022-12-22T12:13:12.985Z,11.04
2022-12-22T12:14:12.931Z,11.00
2022-12-22T12:15:12.945Z,10.98
2022-12-22T12:16:13.003Z,11.00
2022-12-22T12:17:13.035Z,10.93
2022-12-22T12:18:12.926Z,10.83
2022-12-22T12:19:12.941Z,10.85
2022-12-22T12:20:12.896Z,10.79
2022-12-22T12:21:12.941Z,10.82
2022-12-22T12:22:12.982Z,10.82
2022-12-22T12:23:12.930Z,10.93
2022-12-22T12:24:12.873Z,10.85
2022-12-22T12:25:12.902Z,10.80
2022-12-22T12:26:12.871Z,10.87
2022-12-22T12:27:12.864Z,10.82
2022-12-22T12:28:12.968Z,10.86
2022-12-22T12:29:12.847Z,10.80
2022-12-22T12:30:37.343Z,10.85
2022-12-22T12:31:14.940Z,10.91
2022-12-22T12:32:12.855Z,10.97
2022-12-22T12:33:13.002Z,10.91
2022-12-22T12:34:12.800Z,10.87
2022-12-22T12:35:12.851Z,10.95
2022-12-22T12:36:12.811Z,11.01
2022-12-22T12:37:12.786Z,11.04
2022-12-22T12:38:32.286Z,11.03
2022-12-22T12:39:14.898Z,11.01
2022-12-22T12:40:12.767Z,11.05
2022-12-22T12:41:12.771Z,11.01
2022-12-22T12:42:13.632Z,10.94
2022-12-22T12:43:16.485Z,10.90
2022-12-22T12:44:12.764Z,10.85
2022-12-22T12:45:12.782Z,10.91
2022-12-22T12:46:12.768Z,10.93
2022-12-22T12:47:12.714Z,10.86
2022-12-22T12:48:12.745Z,10.91
2022-12-22T12:49:12.735Z,10.91
2022-12-22T12:50:12.807Z,10.93
2022-12-22T12:51:12.701Z,10.94
2022-12-22T12:52:12.724Z,10.93
2022-12-22T12:53:12.685Z,10.98
2022-12-22T12:54:12.687Z,11.03
2022-12-22T12:55:17.098Z,10.97
2022-12-22T12:56:14.707Z,10.95
2022-12-22T12:57:12.669Z,10.90
2022-12-22T12:58:12.677Z,10.91
2022-12-22T12:59:12.623Z,10.97
2022-12-22T13:00:12.661Z,11.08
2022-12-22T13:01:12.750Z,11.03
2022-12-22T13:02:12.745Z,11.08
2022-12-22T13:03:25.230Z,11.11
2022-12-22T13:04:14.762Z,11.15
2022-12-22T13:05:12.680Z,11.23
2022-12-22T13:06:12.634Z,11.28
2022-12-22T13:07:12.609Z,11.36
2022-12-22T13:08:12.612Z,11.43
2022-12-22T13:10:13.554Z,11.46
2022-12-22T13:11:12.607Z,11.58
2022-12-22T13:12:14.443Z,11.71
2022-12-22T13:13:13.559Z,11.74
2022-12-22T13:14:12.670Z,11.76
2022-12-22T13:15:12.559Z,11.77
2022-12-22T13:16:12.667Z,11.82
2022-12-22T13:17:12.548Z,11.76
2022-12-22T13:18:12.575Z,11.84
2022-12-22T13:19:12.528Z,11.70
2022-12-22T13:20:12.539Z,11.66
2022-12-22T13:21:51.587Z,11.69
2022-12-22T13:22:14.541Z,11.58
2022-12-22T13:23:12.511Z,11.61
2022-12-22T13:24:24.632Z,11.56
2022-12-22T13:25:14.521Z,11.41
2022-12-22T13:26:12.507Z,11.48
2022-12-22T13:27:12.491Z,11.34
2022-12-22T13:28:12.505Z,11.37
2022-12-22T13:29:12.468Z,11.45
2022-12-22T13:30:13.199Z,11.45
2022-12-22T13:31:13.589Z,11.37
2022-12-22T13:32:12.460Z,11.45
2022-12-22T13:33:12.478Z,11.51
2022-12-22T13:34:12.508Z,11.49
2022-12-22T13:36:14.459Z,11.55
2022-12-22T13:37:12.466Z,11.52
2022-12-22T13:38:12.450Z,11.48
2022-12-22T13:39:12.406Z,11.51
2022-12-22T13:40:12.423Z,11.49
2022-12-22T13:41:12.376Z,11.52
2022-12-22T13:42:12.584Z,11.51
2022-12-22T13:43:12.342Z,11.45
2022-12-22T13:44:12.401Z,11.46
2022-12-22T13:45:12.394Z,11.41
2022-12-22T13:46:12.445Z,11.51
2022-12-22T13:47:12.459Z,11.40
2022-12-22T13:48:12.333Z,11.45
2022-12-22T13:49:12.321Z,11.34
2022-12-22T13:50:12.346Z,11.31
2022-12-22T13:51:12.289Z,11.40
2022-12-22T13:52:12.332Z,11.38
2022-12-22T13:53:22.895Z,11.36
2022-12-22T13:54:13.320Z,11.20
2022-12-22T13:55:12.315Z,11.33
2022-12-22T13:56:12.318Z,11.25
2022-12-22T13:57:12.330Z,11.12
2022-12-22T13:58:12.307Z,11.19
2022-12-22T13:59:12.266Z,11.13
2022-12-22T14:00:12.256Z,11.19
2022-12-22T14:01:12.297Z,11.13
2022-12-22T14:02:12.365Z,11.11
2022-12-22T14:03:21.661Z,11.13
2022-12-22T14:04:14.401Z,11.04
2022-12-22T14:05:12.206Z,11.11
2022-12-22T14:06:12.215Z,11.08
2022-12-22T14:07:12.218Z,11.00
2022-12-22T14:08:12.231Z,11.05
2022-12-22T14:09:12.216Z,11.09
2022-12-22T14:10:12.230Z,10.97
2022-12-22T14:11:12.189Z,11.08
2022-12-22T14:12:12.176Z,11.11
2022-12-22T14:13:12.191Z,11.08
2022-12-22T14:14:12.191Z,11.05
2022-12-22T14:15:12.255Z,11.11
2022-12-22T14:16:12.250Z,11.01
2022-12-22T14:17:12.157Z,11.09
2022-12-22T14:18:12.170Z,11.01
2022-12-22T14:19:12.135Z,11.04
2022-12-22T14:20:12.168Z,11.01
2022-12-22T14:21:12.115Z,10.91
2022-12-22T14:22:12.119Z,10.98
2022-12-22T14:23:12.099Z,10.95
2022-12-22T14:24:12.077Z,10.98
2022-12-22T14:25:12.123Z,10.93
2022-12-22T14:26:12.114Z,10.94
2022-12-22T14:27:12.202Z,10.93
2022-12-22T14:28:12.078Z,10.95
2022-12-22T14:29:12.072Z,10.97
2022-12-22T14:30:12.089Z,10.94
2022-12-22T14:31:12.332Z,10.93
2022-12-22T14:32:12.171Z,10.90
2022-12-22T14:33:12.056Z,10.98
2022-12-22T14:34:12.045Z,10.90
2022-12-22T14:35:12.052Z,10.93
2022-12-22T14:36:12.064Z,11.01
2022-12-22T14:37:12.037Z,10.91
2022-12-22T14:38:12.020Z,10.95
2022-12-22T14:39:12.030Z,10.86
2022-12-22T14:40:12.040Z,10.95
2022-12-22T14:41:12.035Z,10.83
2022-12-22T14:42:12.013Z,10.82
2022-12-22T14:43:11.999Z,10.86
2022-12-22T14:44:11.986Z,10.87
2022-12-22T14:45:11.974Z,10.85
2022-12-22T14:46:12.012Z,10.85
2022-12-22T14:47:12.233Z,10.79
2022-12-22T14:48:12.045Z,10.78
2022-12-22T14:49:12.102Z,10.85
2022-12-22T14:50:11.992Z,10.80
2022-12-22T14:51:11.967Z,10.87
2022-12-22T14:52:11.957Z,10.85
2022-12-22T14:53:11.984Z,10.83
2022-12-22T14:54:11.954Z,10.70
2022-12-22T14:55:11.919Z,10.62
2022-12-22T14:56:11.917Z,10.62
2022-12-22T14:57:16.174Z,10.55
2022-12-22T14:58:12.918Z,10.58
2022-12-22T14:59:11.934Z,10.43
2022-12-22T15:00:11.875Z,10.58
2022-12-22T15:01:11.966Z,10.64
2022-12-22T15:02:12.082Z,10.58
2022-12-22T15:03:11.934Z,10.60
2022-12-22T15:04:12.873Z,10.55
2022-12-22T15:05:11.876Z,10.48
2022-12-22T15:06:11.852Z,10.49
2022-12-22T15:07:29.806Z,10.55
2022-12-22T15:08:13.847Z,10.54
2022-12-22T15:09:11.906Z,10.41
2022-12-22T15:10:16.349Z,10.46
2022-12-22T15:11:14.587Z,10.46
2022-12-22T15:12:11.802Z,10.54
2022-12-22T15:13:11.807Z,10.55
2022-12-22T15:14:11.868Z,10.45
2022-12-22T15:15:11.920Z,10.60
2022-12-22T15:16:11.771Z,10.48
2022-12-22T15:17:11.958Z,10.49
2022-12-22T15:18:11.811Z,10.55
2022-12-22T15:19:11.772Z,10.54
2022-12-22T15:20:11.763Z,10.54
2022-12-22T15:21:11.785Z,10.58
2022-12-22T15:22:11.764Z,10.46
2022-12-22T15:23:11.772Z,10.52
2022-12-22T15:24:11.759Z,10.62
2022-12-22T15:25:11.736Z,10.54
2022-12-22T15:26:11.767Z,10.60
2022-12-22T15:27:11.740Z,10.68
2022-12-22T15:28:11.752Z,10.62
2022-12-22T15:29:11.736Z,10.61
2022-12-22T15:30:11.729Z,10.52
2022-12-22T15:31:11.770Z,10.61
2022-12-22T15:32:11.676Z,10.58
2022-12-22T15:33:11.687Z,10.57
2022-12-22T15:34:11.686Z,10.49
2022-12-22T15:35:11.682Z,10.45
2022-12-22T15:36:11.681Z,10.49
2022-12-22T15:37:11.672Z,10.43
2022-12-22T15:38:11.764Z,10.39
2022-12-22T15:39:11.673Z,10.39
2022-12-22T15:40:11.655Z,10.26
2022-12-22T15:41:11.616Z,10.12
2022-12-22T15:42:11.688Z,10.16
2022-12-22T15:43:28.839Z,10.01
2022-12-22T15:44:13.955Z,10.06
2022-12-22T15:45:11.617Z,10.02
2022-12-22T15:46:11.637Z,9.88
2022-12-22T15:47:11.684Z,9.90
2022-12-22T15:48:11.599Z,9.84
2022-12-22T15:49:11.616Z,9.83
2022-12-22T15:50:11.606Z,9.73
2022-12-22T15:51:11.576Z,9.80
2022-12-22T15:52:11.594Z,9.75
2022-12-22T15:53:11.535Z,9.69
2022-12-22T15:54:11.551Z,9.70
2022-12-22T15:55:11.580Z,9.66
2022-12-22T15:56:17.192Z,9.63
2022-12-22T15:57:13.545Z,9.69
2022-12-22T15:58:11.540Z,9.54
2022-12-22T15:59:11.518Z,9.45
2022-12-22T16:00:11.505Z,9.30
2022-12-22T16:01:11.868Z,9.30
2022-12-22T16:02:11.790Z,9.22
2022-12-22T16:03:11.666Z,9.22
2022-12-22T16:04:11.558Z,9.19
2022-12-22T16:05:11.501Z,9.06
2022-12-22T16:06:11.520Z,8.96
2022-12-22T16:07:11.548Z,8.89
2022-12-22T16:08:17.574Z,8.86
2022-12-22T16:09:12.515Z,8.75
2022-12-22T16:10:11.456Z,8.77
2022-12-22T16:11:11.470Z,8.71
2022-12-22T16:12:11.489Z,8.72
2022-12-22T16:13:11.815Z,8.77
2022-12-22T16:14:11.465Z,8.70
2022-12-22T16:15:11.475Z,8.59
2022-12-22T16:16:11.500Z,8.72
2022-12-22T16:17:11.450Z,8.74
2022-12-22T16:18:11.444Z,8.65
2022-12-22T16:19:11.423Z,8.70
2022-12-22T16:20:11.418Z,8.67
2022-12-22T16:21:11.371Z,8.67
2022-12-22T16:22:11.629Z,8.65
2022-12-22T16:23:11.424Z,8.71
2022-12-22T16:24:11.384Z,8.65
2022-12-22T16:25:11.365Z,8.65
2022-12-22T16:26:11.361Z,8.71
2022-12-22T16:27:11.430Z,8.77
2022-12-22T16:28:11.411Z,8.60
2022-12-22T16:29:11.343Z,8.60
2022-12-22T16:30:12.109Z,8.60
2022-12-22T16:31:11.521Z,8.62
2022-12-22T16:32:17.223Z,8.60
2022-12-22T16:33:11.336Z,8.60
2022-12-22T16:34:11.327Z,8.68
2022-12-22T16:35:11.320Z,8.68
2022-12-22T16:36:11.325Z,8.65
2022-12-22T16:37:11.308Z,8.60
2022-12-22T16:38:17.924Z,8.74
2022-12-22T16:39:13.320Z,8.60
2022-12-22T16:40:11.293Z,8.62
2022-12-22T16:41:11.284Z,8.62
2022-12-22T16:42:11.274Z,8.60
2022-12-22T16:44:59.259Z,8.65
2022-12-22T16:45:56.725Z,8.53
2022-12-22T16:46:56.741Z,8.55
2022-12-22T16:47:56.791Z,8.62
2022-12-22T16:48:56.659Z,8.60
2022-12-22T16:49:56.734Z,8.53
2022-12-22T16:50:56.657Z,8.52
2022-12-22T16:52:16.674Z,8.52
2022-12-22T16:52:57.855Z,8.59
2022-12-22T16:53:57.793Z,8.63
2022-12-22T16:54:57.759Z,8.65
2022-12-22T16:55:57.737Z,8.62
2022-12-22T16:56:57.733Z,8.55
2022-12-22T16:57:57.754Z,8.56
2022-12-22T16:58:57.792Z,8.57
2022-12-22T16:59:57.761Z,8.55
2022-12-22T17:00:57.729Z,8.68
2022-12-22T17:01:57.862Z,8.74
2022-12-22T17:02:58.073Z,8.63
2022-12-22T17:03:57.828Z,8.71
2022-12-22T17:04:57.683Z,8.71
2022-12-22T17:05:57.772Z,8.56
2022-12-22T17:06:57.662Z,8.62
2022-12-22T17:07:57.648Z,8.71
2022-12-22T17:08:57.704Z,8.63
2022-12-22T17:09:57.682Z,8.56
2022-12-22T17:10:57.699Z,8.60
2022-12-22T17:11:57.671Z,8.60
2022-12-22T17:12:57.682Z,8.60
2022-12-22T17:13:57.659Z,8.68
2022-12-22T17:14:57.703Z,8.56
2022-12-22T17:15:57.701Z,8.63
2022-12-22T17:16:57.660Z,8.67
2022-12-22T17:17:57.638Z,8.70
2022-12-22T17:18:57.643Z,8.60
2022-12-22T17:19:57.567Z,8.62
2022-12-22T17:20:57.699Z,8.65
2022-12-22T17:21:57.618Z,8.65
2022-12-22T17:22:57.633Z,8.60
2022-12-22T17:23:57.577Z,8.60
2022-12-22T17:24:57.561Z,8.67
2022-12-22T17:25:57.681Z,8.55
2022-12-22T17:26:57.564Z,8.56
2022-12-22T17:27:57.562Z,8.56
2022-12-22T17:28:57.565Z,8.52
2022-12-22T17:29:57.522Z,8.35
2022-12-22T17:30:57.616Z,8.38
2022-12-22T17:31:57.593Z,8.37
2022-12-22T17:32:57.531Z,8.47
2022-12-22T17:33:57.506Z,8.42
2022-12-22T17:34:57.531Z,8.38
2022-12-22T17:35:57.529Z,8.24
2022-12-22T17:36:57.567Z,8.26
2022-12-22T17:37:57.460Z,8.32
2022-12-22T17:38:57.515Z,8.29
2022-12-22T17:39:57.445Z,8.39
2022-12-22T17:40:57.663Z,8.28
2022-12-22T17:41:57.722Z,8.37
2022-12-22T17:42:57.793Z,8.37
2022-12-22T17:43:57.484Z,8.35
2022-12-22T17:44:57.527Z,8.47
2022-12-22T17:45:57.472Z,8.44
2022-12-22T17:46:57.542Z,8.44
2022-12-22T17:47:57.459Z,8.46
2022-12-22T17:48:57.431Z,8.46
2022-12-22T17:49:57.425Z,8.39
2022-12-22T17:50:57.470Z,8.41
2022-12-22T17:51:57.503Z,8.42
2022-12-22T17:52:57.440Z,8.47
2022-12-22T17:53:57.443Z,8.50
2022-12-22T17:54:57.409Z,8.52
2022-12-22T17:56:12.707Z,8.52
2022-12-22T17:56:59.372Z,8.39
2022-12-22T17:57:57.353Z,8.52
2022-12-22T17:58:57.494Z,8.50
2022-12-22T17:59:57.345Z,8.50
2022-12-22T18:00:57.348Z,8.42
2022-12-22T18:01:57.524Z,8.37
2022-12-22T18:02:57.512Z,8.42
2022-12-22T18:03:57.458Z,8.41
2022-12-22T18:04:57.716Z,8.37
2022-12-22T18:05:59.401Z,8.39
2022-12-22T18:06:57.321Z,8.44
2022-12-22T18:07:57.309Z,8.50
2022-12-22T18:08:57.291Z,8.44
2022-12-22T18:09:57.309Z,8.24
2022-12-22T18:10:57.287Z,8.32
2022-12-22T18:11:58.299Z,8.24
2022-12-22T18:12:57.268Z,8.29
2022-12-22T18:13:57.369Z,8.28
2022-12-22T18:14:57.245Z,8.29
2022-12-22T18:15:57.311Z,8.39
2022-12-22T18:16:57.243Z,8.26
2022-12-22T18:17:57.243Z,8.21
2022-12-22T18:18:57.256Z,8.29
2022-12-22T18:19:57.231Z,8.24
2022-12-22T18:21:06.914Z,8.39
2022-12-22T18:21:58.198Z,8.44
2022-12-22T18:22:57.210Z,8.29
2022-12-22T18:23:57.179Z,8.32
2022-12-22T18:24:57.217Z,8.29
2022-12-22T18:25:57.223Z,8.41
2022-12-22T18:26:57.313Z,8.44
2022-12-22T18:27:57.177Z,8.44
2022-12-22T18:28:57.225Z,8.32
2022-12-22T18:29:57.168Z,8.32
2022-12-22T18:30:57.178Z,8.23
2022-12-22T18:31:57.313Z,8.26
2022-12-22T18:32:57.120Z,8.32
2022-12-22T18:33:57.128Z,8.28
2022-12-22T18:34:57.124Z,8.17
2022-12-22T18:35:57.160Z,8.28
2022-12-22T18:36:57.135Z,8.23
2022-12-22T18:37:57.132Z,8.12
2022-12-22T18:38:57.106Z,8.24
2022-12-22T18:39:57.084Z,8.29
2022-12-22T18:40:57.061Z,8.26
2022-12-22T18:41:57.083Z,8.16
2022-12-22T18:42:57.184Z,8.23
2022-12-22T18:43:57.066Z,8.24
2022-12-22T18:44:57.083Z,8.14
2022-12-22T18:45:57.088Z,8.17
2022-12-22T18:46:57.131Z,8.20
2022-12-22T18:47:57.038Z,8.26
2022-12-22T18:49:03.483Z,8.24
2022-12-22T18:49:58.045Z,8.23
2022-12-22T18:50:57.051Z,8.17
2022-12-22T18:51:57.044Z,8.21
2022-12-22T18:52:57.019Z,8.17
2022-12-22T18:53:57.120Z,8.17
2022-12-22T18:54:57.019Z,8.06
2022-12-22T18:55:57.022Z,8.02
2022-12-22T18:56:56.988Z,8.01
2022-12-22T18:57:57.015Z,8.01
2022-12-22T18:58:56.989Z,8.14
2022-12-22T18:59:57.089Z,8.04
2022-12-22T19:00:57.043Z,7.94
2022-12-22T19:01:57.054Z,8.01
2022-12-22T19:02:57.022Z,7.95
2022-12-22T19:03:56.913Z,8.02
2022-12-22T19:04:57.977Z,8.06
2022-12-22T19:05:56.986Z,8.09
2022-12-22T19:06:56.917Z,8.13
2022-12-22T19:07:56.912Z,8.04
2022-12-22T19:08:56.927Z,7.99
2022-12-22T19:09:56.913Z,8.13
2022-12-22T19:10:56.903Z,8.17
2022-12-22T19:11:56.899Z,8.09
2022-12-22T19:12:56.875Z,8.16
2022-12-22T19:13:57.864Z,8.06
2022-12-22T19:14:56.853Z,8.14
2022-12-22T19:15:56.903Z,8.05
2022-12-22T19:16:56.863Z,8.06
2022-12-22T19:17:56.840Z,8.04
2022-12-22T19:18:56.821Z,8.13
2022-12-22T19:19:56.876Z,8.05
2022-12-22T19:20:56.839Z,8.10
2022-12-22T19:21:56.825Z,8.16
2022-12-22T19:22:56.809Z,8.17
2022-12-22T19:23:56.793Z,8.14
2022-12-22T19:24:56.774Z,8.24
2022-12-22T19:25:56.804Z,8.16
2022-12-22T19:26:56.807Z,8.12
2022-12-22T19:27:56.764Z,8.16
2022-12-22T19:28:56.779Z,8.12
2022-12-22T19:30:02.991Z,8.13
2022-12-22T19:30:58.797Z,8.12
2022-12-22T19:31:56.844Z,8.14
2022-12-22T19:32:56.903Z,8.12
2022-12-22T19:33:56.721Z,8.04
2022-12-22T19:34:56.729Z,7.99
2022-12-22T19:35:56.756Z,8.04
2022-12-22T19:36:56.738Z,7.98
2022-12-22T19:37:56.730Z,8.05
2022-12-22T19:39:03.417Z,8.06
2022-12-22T19:39:58.682Z,8.04
2022-12-22T19:40:56.712Z,7.96
2022-12-22T19:41:56.712Z,7.99
2022-12-22T19:42:56.656Z,7.98
2022-12-22T19:43:56.646Z,8.02
2022-12-22T19:44:56.664Z,8.04
2022-12-22T19:45:56.724Z,8.12
2022-12-22T19:46:56.662Z,8.14
2022-12-22T19:47:56.677Z,8.13
2022-12-22T19:48:56.637Z,8.19
2022-12-22T19:49:56.626Z,8.14
2022-12-22T19:50:56.620Z,8.16
2022-12-22T19:51:57.401Z,8.24
2022-12-22T19:52:56.593Z,8.17
2022-12-22T19:53:56.591Z,8.24
2022-12-22T19:54:56.636Z,8.23
2022-12-22T19:55:56.641Z,8.06
2022-12-22T19:56:56.617Z,8.13
2022-12-22T19:57:56.584Z,8.04
2022-12-22T19:58:56.580Z,8.12
2022-12-22T19:59:56.633Z,8.09
2022-12-22T20:00:56.633Z,7.99
2022-12-22T20:01:57.412Z,8.12
2022-12-22T20:02:56.619Z,8.12
2022-12-22T20:03:56.538Z,8.10
2022-12-22T20:04:56.544Z,8.17
2022-12-22T20:05:56.541Z,8.13
2022-12-22T20:06:56.587Z,8.06
2022-12-22T20:07:56.543Z,8.14
2022-12-22T20:08:56.482Z,8.05
2022-12-22T20:09:56.502Z,8.14
2022-12-22T20:10:58.902Z,8.21
2022-12-22T20:11:56.495Z,8.29
2022-12-22T20:12:56.448Z,8.31
2022-12-22T20:13:56.451Z,8.28
2022-12-22T20:14:56.470Z,8.19
2022-12-22T20:15:56.468Z,8.21
2022-12-22T20:16:56.524Z,8.23
2022-12-22T20:17:56.417Z,8.31
2022-12-22T20:18:56.419Z,8.35
2022-12-22T20:19:56.453Z,8.23
2022-12-22T20:20:57.610Z,8.26
2022-12-22T20:21:57.415Z,8.42
2022-12-22T20:22:56.407Z,8.41
2022-12-22T20:23:56.418Z,8.41
2022-12-22T20:24:56.417Z,8.35
2022-12-22T20:25:56.425Z,8.38
2022-12-22T20:26:56.443Z,8.37
2022-12-22T20:27:56.395Z,8.39
2022-12-22T20:28:56.409Z,8.42
2022-12-22T20:29:56.393Z,8.32
2022-12-22T20:30:56.387Z,8.42
2022-12-22T20:31:56.414Z,8.31
2022-12-22T20:32:56.343Z,8.39
2022-12-22T20:33:56.370Z,8.41
2022-12-22T20:34:56.355Z,8.50
2022-12-22T20:35:56.347Z,8.46
2022-12-22T20:36:56.365Z,8.41
2022-12-22T20:37:56.313Z,8.38
2022-12-22T20:38:56.297Z,8.35
2022-12-22T20:39:56.340Z,8.23
2022-12-22T20:40:56.298Z,8.35
2022-12-22T20:41:56.332Z,8.28
2022-12-22T20:42:56.262Z,8.39
2022-12-22T20:43:56.271Z,8.37
2022-12-22T20:45:02.405Z,8.46
2022-12-22T20:45:57.372Z,8.41
2022-12-22T20:46:56.217Z,8.34
2022-12-22T20:47:56.280Z,8.31
2022-12-22T20:48:56.321Z,8.38
2022-12-22T20:49:56.226Z,8.35
2022-12-22T20:50:56.206Z,8.35
2022-12-22T20:51:56.412Z,8.26
2022-12-22T20:52:56.261Z,8.29
2022-12-22T20:53:56.232Z,8.37
2022-12-22T20:54:56.249Z,8.29
2022-12-22T20:55:56.235Z,8.35
2022-12-22T20:56:56.222Z,8.35
2022-12-22T20:57:56.205Z,8.37
2022-12-22T20:58:56.199Z,8.38
2022-12-22T20:59:56.921Z,8.41
2022-12-22T21:00:57.210Z,8.47
2022-12-22T21:01:56.327Z,8.49
2022-12-22T21:02:56.399Z,8.39
2022-12-22T21:03:56.224Z,8.39
2022-12-22T21:04:56.182Z,8.32
2022-12-22T21:05:56.167Z,8.42
2022-12-22T21:06:57.139Z,8.49
2022-12-22T21:07:56.194Z,8.34
2022-12-22T21:08:56.128Z,8.37
2022-12-22T21:09:56.089Z,8.37
2022-12-22T21:10:56.105Z,8.37
2022-12-22T21:11:56.086Z,8.39
2022-12-22T21:12:56.095Z,8.46
2022-12-22T21:13:56.114Z,8.38
2022-12-22T21:14:56.095Z,8.41
2022-12-22T21:15:56.098Z,8.52
2022-12-22T21:16:56.408Z,8.50
2022-12-22T21:17:58.852Z,8.56
2022-12-22T21:18:56.290Z,8.52
2022-12-22T21:19:56.091Z,8.57
2022-12-22T21:20:56.078Z,8.50
2022-12-22T21:21:56.095Z,8.41
2022-12-22T21:22:56.039Z,8.39
2022-12-22T21:23:56.022Z,8.46
2022-12-22T21:24:56.046Z,8.46
2022-12-22T21:25:55.992Z,8.44
2022-12-22T21:26:56.018Z,8.46
2022-12-22T21:27:55.998Z,8.42
2022-12-22T21:28:55.991Z,8.57
2022-12-22T21:29:56.001Z,8.55
2022-12-22T21:30:56.045Z,8.59
2022-12-22T21:31:55.967Z,8.59
2022-12-22T21:32:55.984Z,8.59
2022-12-22T21:33:55.992Z,8.53
2022-12-22T21:34:55.925Z,8.50
2022-12-22T21:35:55.963Z,8.53
2022-12-22T21:36:55.935Z,8.47
2022-12-22T21:37:55.947Z,8.52
2022-12-22T21:38:55.920Z,8.38
2022-12-22T21:39:55.902Z,8.38
2022-12-22T21:40:55.926Z,8.39
2022-12-22T21:41:55.944Z,8.35
2022-12-22T21:42:55.894Z,8.44
2022-12-22T21:43:55.910Z,8.35
2022-12-22T21:44:55.901Z,8.28
2022-12-22T21:45:55.931Z,8.39
2022-12-22T21:46:55.969Z,8.29
2022-12-22T21:47:55.880Z,8.38
2022-12-22T21:48:55.884Z,8.39
2022-12-22T21:49:55.869Z,8.35
2022-12-22T21:50:55.870Z,8.38
2022-12-22T21:51:55.895Z,8.42
2022-12-22T21:52:55.842Z,8.37
2022-12-22T21:53:55.829Z,8.38
2022-12-22T21:54:55.793Z,8.39
2022-12-22T21:55:55.840Z,8.44
2022-12-22T21:56:55.805Z,8.37
2022-12-22T21:57:56.073Z,8.44
2022-12-22T21:59:01.886Z,8.38
2022-12-22T21:59:56.778Z,8.31
2022-12-22T22:00:55.803Z,8.37
2022-12-22T22:01:55.920Z,8.34
2022-12-22T22:02:55.919Z,8.34
2022-12-22T22:03:55.797Z,8.34
2022-12-22T22:04:55.766Z,8.35
2022-12-22T22:05:55.783Z,8.41
2022-12-22T22:06:55.749Z,8.44
2022-12-22T22:07:55.770Z,8.42
2022-12-22T22:08:55.760Z,8.44
2022-12-22T22:09:55.704Z,8.49
2022-12-22T22:10:55.700Z,8.35
2022-12-22T22:11:55.723Z,8.39
2022-12-22T22:12:55.757Z,8.46
2022-12-22T22:13:55.798Z,8.37
2022-12-22T22:14:55.719Z,8.32
2022-12-22T22:15:55.773Z,8.38
2022-12-22T22:16:55.714Z,8.34
2022-12-22T22:17:58.620Z,8.32
2022-12-22T22:18:56.684Z,8.29
2022-12-22T22:19:55.635Z,8.28
2022-12-22T22:20:55.648Z,8.28
2022-12-22T22:21:55.662Z,8.38
2022-12-22T22:22:55.663Z,8.17
2022-12-22T22:23:55.645Z,8.35
2022-12-22T22:24:55.657Z,8.35
2022-12-22T22:25:55.632Z,8.28
2022-12-22T22:26:55.626Z,8.32
2022-12-22T22:27:55.600Z,8.32
2022-12-22T22:28:55.665Z,8.29
2022-12-22T22:29:55.705Z,8.29
2022-12-22T22:30:55.660Z,8.31
2022-12-22T22:31:55.588Z,8.34
2022-12-22T22:32:55.584Z,8.42